Time;durP1;ratioP1;P1;durP2;ratioP2;P2;SDS_P1;SDS_P2;PMS_P1;PMS_P2;Temp;Humidity;BMP_temperature;BMP_pressure;BME280_temperature;BME280_humidity;BME280_pressure;Samples;Min_cycle;Max_cycle;Signal;HPM_P1;HPM_P2
2023/01/03 00:01:58;;;;;;;25.67;10.90;;;;;;;8.95;100.00;102152.75;5068824;28;20052;-71
2023/01/03 00:04:24;;;;;;;29.20;14.80;;;;;;;8.94;100.00;102148.38;5078457;28;20044;-72
2023/01/03 00:06:52;;;;;;;33.95;14.00;;;;;;;8.95;100.00;102157.47;5069322;28;20044;-71
2023/01/03 00:09:21;;;;;;;28.20;13.00;;;;;;;8.94;100.00;102153.88;5069346;28;20155;-72
2023/01/03 00:14:37;;;;;;;24.13;7.15;;;;;;;8.74;100.00;102162.38;5069811;28;20082;-74
2023/01/03 00:17:05;;;;;;;22.23;9.32;;;;;;;8.82;100.00;102161.41;5070326;28;20521;-73
2023/01/03 00:19:37;;;;;;;24.42;9.10;;;;;;;8.80;100.00;102156.25;5071185;28;20670;-73
2023/01/03 00:22:04;;;;;;;22.20;6.75;;;;;;;8.72;100.00;102154.44;5076753;28;20045;-73
2023/01/03 00:24:31;;;;;;;18.63;7.85;;;;;;;8.66;100.00;102166.06;5068632;28;20098;-73
2023/01/03 00:26:58;;;;;;;6.88;3.20;;;;;;;8.65;100.00;102157.00;5069835;28;20160;-73
2023/01/03 00:29:25;;;;;;;21.67;7.95;;;;;;;8.71;100.00;102155.59;5074963;28;20135;-74
2023/01/03 00:31:52;;;;;;;6.55;2.42;;;;;;;8.63;100.00;102167.56;5076114;28;20145;-75
2023/01/03 00:34:19;;;;;;;29.13;10.23;;;;;;;8.66;100.00;102164.13;5071647;28;20135;-73
2023/01/03 00:36:45;;;;;;;22.45;8.85;;;;;;;8.63;100.00;102170.34;5068723;28;20045;-74
2023/01/03 00:39:12;;;;;;;26.20;8.60;;;;;;;8.59;100.00;102168.63;5068340;28;20045;-73
2023/01/03 00:41:39;;;;;;;23.27;9.02;;;;;;;8.60;100.00;102173.00;5069112;28;20037;-75
2023/01/03 00:44:05;;;;;;;25.13;9.75;;;;;;;8.53;100.00;102176.34;5081321;28;20478;-72
2023/01/03 00:46:32;;;;;;;20.52;7.45;;;;;;;8.48;100.00;102189.56;5069856;28;20058;-73
2023/01/03 00:48:59;;;;;;;21.05;9.20;;;;;;;8.47;100.00;102187.97;5068939;28;20843;-72
2023/01/03 00:51:27;;;;;;;17.13;6.00;;;;;;;8.39;100.00;102192.47;5082472;28;20047;-73
2023/01/03 00:53:56;;;;;;;14.35;4.43;;;;;;;8.36;100.00;102195.09;5067717;28;20058;-73
2023/01/03 00:56:26;;;;;;;15.02;3.75;;;;;;;8.32;100.00;102195.00;5078674;28;20466;-73
2023/01/03 00:58:53;;;;;;;11.43;4.22;;;;;;;8.33;100.00;102193.84;5068559;28;20050;-73
2023/01/03 01:01:24;;;;;;;22.17;8.02;;;;;;;8.40;100.00;102191.28;5070670;28;20050;-73
2023/01/03 01:03:55;;;;;;;19.40;4.85;;;;;;;8.27;100.00;102203.50;5067348;28;20062;-73
2023/01/03 01:06:25;;;;;;;12.82;4.85;;;;;;;8.34;100.00;102200.97;5076841;28;20052;-73
2023/01/03 01:08:53;;;;;;;19.80;6.70;;;;;;;8.35;100.00;102207.28;5067997;28;20509;-73
2023/01/03 01:11:20;;;;;;;8.50;3.33;;;;;;;8.30;100.00;102211.06;5071988;28;20049;-72
2023/01/03 01:13:48;;;;;;;17.38;5.70;;;;;;;8.36;100.00;102214.41;5068125;28;20485;-73
2023/01/03 01:16:18;;;;;;;5.07;2.40;;;;;;;8.22;100.00;102217.53;5073452;28;20051;-73
2023/01/03 01:18:47;;;;;;;5.88;2.55;;;;;;;8.23;100.00;102213.59;5067982;28;20040;-72
2023/01/03 01:21:16;;;;;;;8.90;3.35;;;;;;;8.19;100.00;102220.94;5067786;28;20763;-73
2023/01/03 01:23:44;;;;;;;16.17;5.53;;;;;;;8.22;100.00;102208.44;5067791;28;20506;-73
2023/01/03 01:26:17;;;;;;;18.73;6.70;;;;;;;8.30;100.00;102215.81;5069521;28;20059;-74
2023/01/03 01:28:43;;;;;;;11.80;4.43;;;;;;;8.22;100.00;102213.94;5067783;28;20240;-73
2023/01/03 01:31:13;;;;;;;17.85;5.82;;;;;;;8.37;100.00;102222.31;5068789;28;20044;-73
2023/01/03 01:33:40;;;;;;;18.23;7.22;;;;;;;8.41;100.00;102219.69;5056826;28;20048;-73
2023/01/03 01:36:40;;;;;;;20.70;6.70;;;;;;;8.42;100.00;102222.09;5047808;28;20051;-73
2023/01/03 01:39:12;;;;;;;20.77;6.25;;;;;;;8.44;100.00;102227.28;5037504;28;20141;-71
2023/01/03 01:44:48;;;;;;;10.27;4.78;;;;;;;8.39;100.00;102241.28;5048217;28;20063;-73
2023/01/03 01:47:46;;;;;;;11.88;4.07;;;;;;;8.41;100.00;102239.00;5051524;28;20048;-73
2023/01/03 01:50:30;;;;;;;17.33;6.97;;;;;;;8.48;100.00;102247.50;5057643;28;20067;-72
2023/01/03 01:53:10;;;;;;;14.55;5.47;;;;;;;8.45;100.00;102237.97;5059703;28;20059;-73
2023/01/03 01:55:44;;;;;;;13.95;5.68;;;;;;;8.49;100.00;102247.16;5048764;28;20056;-73
2023/01/03 01:58:11;;;;;;;11.05;3.85;;;;;;;8.56;100.00;102252.06;5046278;28;20083;-75
2023/01/03 02:00:39;;;;;;;13.43;4.43;;;;;;;8.53;100.00;102250.00;5058095;28;20044;-75
2023/01/03 02:03:06;;;;;;;17.27;5.68;;;;;;;8.58;100.00;102260.81;5046931;28;20041;-74
2023/01/03 02:05:36;;;;;;;19.92;6.82;;;;;;;8.60;100.00;102253.03;5056924;28;20151;-74
2023/01/03 02:08:03;;;;;;;19.85;6.38;;;;;;;8.60;100.00;102258.53;5049283;28;20045;-74
2023/01/03 02:10:57;;;;;;;9.35;3.40;;;;;;;8.50;100.00;102248.75;5059948;28;20052;-73
2023/01/03 02:13:55;;;;;;;11.82;4.32;;;;;;;8.51;100.00;102261.41;5050983;28;20044;-73
2023/01/03 02:16:59;;;;;;;5.78;2.35;;;;;;;8.46;100.00;102266.34;5043269;28;20044;-72
2023/01/03 02:19:50;;;;;;;18.30;6.18;;;;;;;8.49;100.00;102271.97;5044589;28;20059;-74
2023/01/03 02:22:31;;;;;;;21.95;7.15;;;;;;;8.57;100.00;102276.56;5048018;28;20045;-72
2023/01/03 02:25:13;;;;;;;7.55;3.40;;;;;;;8.49;100.00;102274.75;5052351;28;20044;-72
2023/01/03 02:27:59;;;;;;;23.23;7.00;;;;;;;8.49;100.00;102273.94;5046792;28;20051;-75
2023/01/03 02:30:36;;;;;;;11.75;4.70;;;;;;;8.44;100.00;102277.72;5049740;28;20999;-73
2023/01/03 02:33:40;;;;;;;14.88;4.07;;;;;;;8.40;100.00;102276.03;5045613;28;20045;-73
2023/01/03 02:36:25;;;;;;;9.30;3.75;;;;;;;8.48;100.00;102280.59;5044920;28;20127;-73
2023/01/03 02:38:54;;;;;;;16.33;6.40;;;;;;;8.52;100.00;102290.59;5053306;28;20052;-73
2023/01/03 02:41:32;;;;;;;9.50;4.82;;;;;;;8.41;100.00;102283.13;5048151;28;20052;-73
2023/01/03 02:44:09;;;;;;;13.05;4.57;;;;;;;8.36;100.00;102297.94;5048435;28;20059;-74
2023/01/03 02:47:05;;;;;;;16.23;5.03;;;;;;;8.36;100.00;102289.69;5050461;28;20056;-72
2023/01/03 02:49:42;;;;;;;22.67;8.48;;;;;;;8.47;100.00;102290.03;5046143;28;20805;-76
2023/01/03 02:52:31;;;;;;;21.80;8.50;;;;;;;8.46;100.00;102280.94;5045396;28;20044;-73
2023/01/03 02:55:08;;;;;;;15.95;6.90;;;;;;;8.42;100.00;102282.78;5050562;28;20058;-73
2023/01/03 02:57:41;;;;;;;12.95;5.57;;;;;;;8.42;100.00;102276.47;5046086;28;20915;-75
2023/01/03 03:00:13;;;;;;;10.98;4.28;;;;;;;8.39;100.00;102286.25;5051611;28;20815;-76
2023/01/03 03:02:47;;;;;;;19.90;5.53;;;;;;;8.38;100.00;102278.31;5044520;28;20059;-73
2023/01/03 03:05:21;;;;;;;20.02;6.90;;;;;;;8.35;100.00;102290.84;5055504;28;20099;-73
2023/01/03 03:07:48;;;;;;;15.70;5.65;;;;;;;8.39;100.00;102285.41;5043972;28;20067;-74
2023/01/03 03:13:13;;;;;;;10.90;4.80;;;;;;;8.33;100.00;102286.81;5044965;28;20048;-73
2023/01/03 03:16:06;;;;;;;20.17;8.52;;;;;;;8.33;100.00;102279.34;5052441;28;20056;-73
2023/01/03 03:18:42;;;;;;;24.92;9.15;;;;;;;8.20;100.00;102285.97;5055667;28;20056;-75
2023/01/03 03:26:55;;;;;;;27.73;12.13;;;;;;;8.09;100.00;102281.25;5047722;28;20234;-72
2023/01/03 03:29:22;;;;;;;26.95;10.80;;;;;;;8.00;100.00;102289.59;5051991;28;20056;-72
2023/01/03 03:31:50;;;;;;;5.35;3.00;;;;;;;7.90;100.00;102298.34;5048613;28;20048;-73
2023/01/03 03:34:24;;;;;;;25.52;10.68;;;;;;;7.91;100.00;102286.16;5061290;28;20049;-72
2023/01/03 03:37:02;;;;;;;29.10;11.60;;;;;;;7.92;100.00;102299.59;5049209;28;20048;-73
2023/01/03 03:45:12;;;;;;;26.90;13.15;;;;;;;7.80;100.00;102287.75;5064158;28;20093;-73
2023/01/03 03:47:51;;;;;;;29.73;12.80;;;;;;;7.72;100.00;102291.38;5080404;28;20044;-73
2023/01/03 03:50:34;;;;;;;24.67;10.07;;;;;;;7.65;100.00;102293.88;5072277;28;20516;-72
2023/01/03 03:53:05;;;;;;;29.67;11.52;;;;;;;7.60;100.00;102291.38;5069679;28;20048;-73
2023/01/03 03:55:35;;;;;;;29.13;12.10;;;;;;;7.59;100.00;102296.06;5069517;28;20082;-73
2023/01/03 03:58:06;;;;;;;23.70;11.00;;;;;;;7.55;100.00;102300.63;5080009;28;20036;-72
2023/01/03 04:00:37;;;;;;;29.08;13.15;;;;;;;7.51;100.00;102305.22;5078243;28;20048;-71
2023/01/03 04:03:05;;;;;;;32.40;13.85;;;;;;;7.47;100.00;102297.97;5076507;28;20050;-74
2023/01/03 04:05:38;;;;;;;29.42;14.00;;;;;;;7.44;100.00;102301.38;5077511;28;20048;-73
2023/01/03 04:08:04;;;;;;;24.23;11.65;;;;;;;7.31;100.00;102297.78;5078961;28;20044;-74
2023/01/03 04:10:31;;;;;;;17.13;8.10;;;;;;;7.30;100.00;102309.91;5069484;28;20056;-70
2023/01/03 04:13:03;;;;;;;36.15;16.33;;;;;;;7.34;100.00;102299.88;5069214;28;20049;-70
2023/01/03 04:15:30;;;;;;;11.07;4.07;;;;;;;7.31;100.00;102296.97;5069480;28;20055;-73
2023/01/03 04:17:56;;;;;;;32.83;14.25;;;;;;;7.34;100.00;102308.13;5075453;28;20132;-73
2023/01/03 04:20:23;;;;;;;21.33;8.15;;;;;;;7.30;100.00;102311.88;5069550;28;20044;-71
2023/01/03 04:22:49;;;;;;;31.48;15.52;;;;;;;7.27;100.00;102305.13;5077185;28;20048;-73
2023/01/03 04:25:15;;;;;;;28.50;13.50;;;;;;;7.26;100.00;102316.47;5072654;28;20044;-73
2023/01/03 04:27:42;;;;;;;29.02;12.55;;;;;;;7.27;100.00;102315.31;5078772;28;20047;-72
2023/01/03 04:30:10;;;;;;;34.55;15.02;;;;;;;7.26;100.00;102320.00;5074507;28;20041;-72
2023/01/03 04:32:37;;;;;;;32.67;14.25;;;;;;;7.26;100.00;102314.50;5070433;28;20571;-73
2023/01/03 04:35:04;;;;;;;33.42;15.80;;;;;;;7.28;100.00;102312.22;5075510;28;20054;-72
2023/01/03 04:37:30;;;;;;;38.38;17.73;;;;;;;7.24;100.00;102314.03;5075615;28;20048;-73
2023/01/03 04:39:57;;;;;;;35.55;18.05;;;;;;;7.20;100.00;102312.28;5068509;28;20506;-72
2023/01/03 04:45:09;;;;;;;38.60;18.65;;;;;;;7.20;100.00;102328.81;5070826;28;20044;-74
2023/01/03 04:47:36;;;;;;;40.30;17.73;;;;;;;7.14;100.00;102322.69;5073642;28;20054;-71
2023/01/03 04:50:02;;;;;;;40.20;20.42;;;;;;;7.16;100.00;102325.13;5068405;28;20048;-72
2023/01/03 04:52:29;;;;;;;42.70;21.48;;;;;;;7.14;100.00;102322.69;5075679;28;20074;-72
2023/01/03 04:54:55;;;;;;;42.10;21.20;;;;;;;7.13;100.00;102323.03;5068950;28;20048;-73
2023/01/03 04:57:22;;;;;;;46.03;21.35;;;;;;;7.10;100.00;102331.97;5069753;28;20048;-73
2023/01/03 04:59:48;;;;;;;41.97;20.83;;;;;;;7.11;100.00;102333.56;5077465;28;20044;-72
2023/01/03 05:02:15;;;;;;;46.20;21.00;;;;;;;7.12;100.00;102335.19;5074857;28;20049;-73
2023/01/03 05:04:41;;;;;;;37.72;19.27;;;;;;;7.07;100.00;102336.19;5075418;28;20442;-72
2023/01/03 05:07:08;;;;;;;34.33;17.02;;;;;;;7.07;100.00;102338.13;5073006;28;20040;-72
2023/01/03 05:09:35;;;;;;;39.45;17.95;;;;;;;7.11;100.00;102330.81;5069218;28;20056;-72
2023/01/03 05:12:01;;;;;;;31.35;15.52;;;;;;;7.04;100.00;102328.59;5067322;28;20842;-72
2023/01/03 05:14:28;;;;;;;30.40;14.90;;;;;;;7.03;100.00;102318.75;5076865;28;20059;-71
2023/01/03 05:16:54;;;;;;;36.42;15.75;;;;;;;7.03;100.00;102326.19;5068070;28;20049;-73
2023/01/03 05:19:21;;;;;;;34.38;13.60;;;;;;;6.96;100.00;102325.91;5068377;28;20129;-72
2023/01/03 05:27:22;;;;;;;30.70;12.50;;;;;;;6.94;100.00;102322.69;5067657;28;20400;-73
2023/01/03 05:29:51;;;;;;;33.50;13.90;;;;;;;6.92;100.00;102324.97;5067969;28;20790;-73
2023/01/03 05:32:18;;;;;;;29.20;12.82;;;;;;;6.85;100.00;102325.47;5072786;28;20091;-72
2023/01/03 05:34:44;;;;;;;30.70;13.40;;;;;;;6.84;100.00;102328.56;5067775;28;20549;-72
2023/01/03 05:37:11;;;;;;;27.65;12.82;;;;;;;6.82;100.00;102323.41;5071610;28;20421;-72
2023/01/03 05:39:37;;;;;;;24.58;11.35;;;;;;;6.77;100.00;102322.78;5076732;28;20511;-73
2023/01/03 05:42:04;;;;;;;32.05;13.05;;;;;;;6.82;100.00;102330.88;5077333;28;20062;-72
2023/01/03 05:44:32;;;;;;;30.30;13.00;;;;;;;6.79;100.00;102332.31;5069468;28;20131;-72
2023/01/03 05:47:02;;;;;;;32.35;13.50;;;;;;;6.78;100.00;102333.47;5068376;28;20071;-73
2023/01/03 05:49:28;;;;;;;28.38;13.57;;;;;;;6.76;100.00;102326.69;5075037;28;20473;-72
2023/01/03 05:51:55;;;;;;;28.13;13.07;;;;;;;6.69;100.00;102327.22;5072083;28;20514;-73
2023/01/03 05:54:21;;;;;;;29.25;13.35;;;;;;;6.67;100.00;102334.16;5071880;28;20049;-70
2023/01/03 05:56:49;;;;;;;31.73;12.55;;;;;;;6.66;100.00;102327.88;5068055;28;20415;-70
2023/01/03 05:59:17;;;;;;;32.67;14.18;;;;;;;6.66;100.00;102335.31;5071462;28;20072;-71
2023/01/03 06:01:44;;;;;;;32.47;14.27;;;;;;;6.62;100.00;102331.63;5070566;28;20054;-72
2023/01/03 06:04:10;;;;;;;34.97;14.75;;;;;;;6.61;100.00;102343.78;5074164;28;20588;-73
2023/01/03 06:06:37;;;;;;;30.05;14.52;;;;;;;6.58;100.00;102336.19;5073991;28;20126;-73
2023/01/03 06:09:04;;;;;;;31.95;15.10;;;;;;;6.54;100.00;102341.53;5069156;28;20123;-73
2023/01/03 06:11:30;;;;;;;29.75;15.15;;;;;;;6.45;100.00;102331.72;5068432;28;20052;-73
2023/01/03 06:13:57;;;;;;;32.05;15.02;;;;;;;6.44;100.00;102344.66;5067104;28;20052;-73
2023/01/03 06:19:09;;;;;;;27.52;13.18;;;;;;;6.39;100.00;102338.53;5068664;28;20044;-72
2023/01/03 06:21:35;;;;;;;32.60;15.25;;;;;;;6.44;100.00;102336.41;5066178;28;20052;-73
2023/01/03 06:24:03;;;;;;;31.50;16.27;;;;;;;6.46;100.00;102333.31;5070862;28;20067;-72
2023/01/03 06:26:29;;;;;;;32.88;16.15;;;;;;;6.49;100.00;102327.16;5073499;28;20052;-71
2023/01/03 06:28:57;;;;;;;40.03;16.58;;;;;;;6.47;100.00;102323.91;5067970;28;20425;-73
2023/01/03 06:31:23;;;;;;;29.35;14.65;;;;;;;6.51;100.00;102331.19;5069674;28;20052;-72
2023/01/03 06:33:50;;;;;;;32.42;14.88;;;;;;;6.51;100.00;102322.16;5075528;28;20081;-72
2023/01/03 06:36:19;;;;;;;30.85;14.65;;;;;;;6.49;100.00;102318.91;5070091;28;20044;-72
2023/01/03 06:38:45;;;;;;;26.85;12.15;;;;;;;6.48;100.00;102322.81;5066914;28;20047;-72
2023/01/03 06:41:13;;;;;;;32.55;11.70;;;;;;;6.38;100.00;102321.22;5069004;28;20047;-72
2023/01/03 06:43:40;;;;;;;25.60;11.80;;;;;;;6.37;100.00;102329.78;5067625;28;20051;-73
2023/01/03 06:54:28;;;;;;;23.67;10.43;;;;;;;6.35;100.00;102341.13;5073119;28;20058;-74
2023/01/03 06:56:54;;;;;;;23.50;10.38;;;;;;;6.38;100.00;102340.47;5077665;28;20044;-73
2023/01/03 06:59:21;;;;;;;23.77;10.98;;;;;;;6.43;100.00;102339.47;5074436;28;20395;-73
2023/01/03 07:01:49;;;;;;;25.05;10.75;;;;;;;6.42;100.00;102351.63;5073614;28;20055;-71
2023/01/03 07:04:17;;;;;;;27.30;9.82;;;;;;;6.44;100.00;102350.16;5080135;28;20075;-73
2023/01/03 07:06:44;;;;;;;23.80;10.00;;;;;;;6.53;100.00;102358.34;5077097;28;20044;-73
2023/01/03 07:09:11;;;;;;;27.77;11.18;;;;;;;6.53;100.00;102342.66;5071203;28;20414;-73
2023/01/03 07:11:38;;;;;;;25.42;11.90;;;;;;;6.51;100.00;102349.66;5073298;28;20422;-73
2023/01/03 07:14:06;;;;;;;26.00;11.10;;;;;;;6.55;100.00;102342.34;5070354;28;20114;-74
2023/01/03 07:16:38;;;;;;;29.67;12.45;;;;;;;6.57;100.00;102335.38;5070768;28;20048;-74
2023/01/03 07:19:07;;;;;;;29.73;12.05;;;;;;;6.58;100.00;102331.47;5070147;28;20055;-73
2023/01/03 07:21:34;;;;;;;23.88;10.40;;;;;;;6.59;100.00;102335.03;5071860;28;20053;-73
2023/01/03 07:24:02;;;;;;;27.77;11.30;;;;;;;6.64;100.00;102335.66;5070114;28;20055;-73
2023/01/03 07:26:31;;;;;;;32.45;11.00;;;;;;;6.68;100.00;102344.84;5078257;28;20098;-74
2023/01/03 07:28:58;;;;;;;22.98;9.52;;;;;;;6.72;100.00;102342.25;5070717;28;20127;-72
2023/01/03 07:31:25;;;;;;;25.30;8.85;;;;;;;6.71;100.00;102346.94;5069752;28;20048;-72
2023/01/03 07:33:52;;;;;;;23.27;10.18;;;;;;;6.74;100.00;102345.47;5070576;28;20068;-72
2023/01/03 07:36:20;;;;;;;24.45;9.55;;;;;;;6.73;100.00;102344.66;5077339;28;20055;-72
2023/01/03 07:38:47;;;;;;;21.17;9.05;;;;;;;6.75;100.00;102353.38;5070000;28;20048;-73
2023/01/03 07:41:14;;;;;;;23.45;9.95;;;;;;;6.77;100.00;102348.38;5070412;28;20044;-73
2023/01/03 07:43:46;;;;;;;28.63;10.90;;;;;;;6.79;100.00;102351.56;5077312;28;20138;-73
2023/01/03 07:46:22;;;;;;;28.60;9.80;;;;;;;6.76;100.00;102348.69;5070095;28;20135;-73
2023/01/03 07:48:50;;;;;;;24.52;9.55;;;;;;;6.75;100.00;102347.88;5069752;28;20076;-74
2023/01/03 07:51:19;;;;;;;26.27;9.60;;;;;;;6.75;100.00;102341.59;5070107;28;20071;-72
2023/01/03 07:53:49;;;;;;;22.52;8.35;;;;;;;6.71;100.00;102337.88;5070306;28;20068;-72
2023/01/03 07:56:18;;;;;;;26.27;8.35;;;;;;;6.78;100.00;102349.19;5077532;28;20490;-73
2023/01/03 07:58:46;;;;;;;27.70;9.93;;;;;;;6.78;100.00;102346.44;5073735;28;20040;-72
2023/01/03 08:01:16;;;;;;;28.45;11.48;;;;;;;6.79;100.00;102345.28;5080057;28;20051;-73
2023/01/03 08:03:43;;;;;;;30.70;11.52;;;;;;;6.83;100.00;102343.47;5049053;28;20044;-73
2023/01/03 08:06:21;;;;;;;23.88;9.90;;;;;;;6.85;100.00;102333.75;5051382;28;20797;-74
2023/01/03 08:13:16;;;;;;;28.83;9.45;;;;;;;6.86;100.00;102342.81;5057951;28;20040;-76
2023/01/03 08:14:21;;;;;;;23.13;9.52;;;;;;;6.81;100.00;102331.97;5048298;28;20081;-75
2023/01/03 08:16:52;;;;;;;20.85;8.57;;;;;;;6.80;100.00;102320.19;5054383;28;20242;-74
2023/01/03 08:19:19;;;;;;;25.60;8.57;;;;;;;6.80;100.00;102328.44;5050608;28;20051;-76
2023/01/03 08:21:45;;;;;;;24.23;7.72;;;;;;;6.81;100.00;102330.03;5052644;28;20063;-73
2023/01/03 08:24:12;;;;;;;24.35;7.57;;;;;;;6.93;100.00;102330.16;5051987;28;20502;-75
2023/01/03 08:26:38;;;;;;;32.50;10.85;;;;;;;7.00;100.00;102321.34;5047257;28;20049;-74
2023/01/03 08:29:05;;;;;;;35.55;12.90;;;;;;;7.12;100.00;102340.69;5044088;28;20044;-74
2023/01/03 08:31:36;;;;;;;26.52;10.73;;;;;;;7.19;100.00;102346.47;5052303;28;20240;-72
2023/01/03 08:34:07;;;;;;;26.30;9.35;;;;;;;7.27;100.00;102359.38;5052299;28;20063;-74
2023/01/03 08:36:48;;;;;;;29.55;11.15;;;;;;;7.34;100.00;102351.38;5050785;28;20811;-73
2023/01/03 08:39:19;;;;;;;19.70;8.88;;;;;;;7.42;100.00;102358.75;5055396;28;20048;-74
2023/01/03 08:41:51;;;;;;;26.23;9.80;;;;;;;7.50;100.00;102363.41;5047740;28;20063;-76
2023/01/03 08:44:17;;;;;;;28.08;10.77;;;;;;;7.57;100.00;102360.91;5046447;28;20048;-73
2023/01/03 08:46:50;;;;;;;27.33;10.63;;;;;;;7.63;100.00;102362.31;5049526;28;20222;-74
2023/01/03 08:49:18;;;;;;;25.05;10.00;;;;;;;7.69;100.00;102377.47;5053701;28;20043;-74
2023/01/03 08:51:44;;;;;;;25.10;9.15;;;;;;;7.74;100.00;102366.25;5054646;28;20055;-74
2023/01/03 08:54:11;;;;;;;25.23;10.77;;;;;;;7.80;100.00;102368.44;5050741;28;20892;-74
2023/01/03 08:56:38;;;;;;;19.65;8.35;;;;;;;7.85;100.00;102360.00;5049322;28;20053;-74
2023/01/03 08:59:05;;;;;;;20.35;9.20;;;;;;;7.85;100.00;102362.75;5050549;28;20062;-75
2023/01/03 09:01:32;;;;;;;31.50;13.75;;;;;;;7.89;100.00;102360.09;5053280;28;20056;-73
2023/01/03 09:03:59;;;;;;;24.23;10.20;;;;;;;7.89;100.00;102360.91;5049980;28;20079;-73
2023/01/03 09:06:25;;;;;;;24.15;9.75;;;;;;;8.01;100.00;102354.63;5051335;28;20055;-74
2023/01/03 09:08:52;;;;;;;20.77;8.80;;;;;;;8.12;100.00;102361.31;5055067;28;20838;-73
2023/01/03 09:11:18;;;;;;;19.83;7.43;;;;;;;8.18;100.00;102357.19;5053687;28;20814;-73
2023/01/03 09:13:45;;;;;;;24.80;8.38;;;;;;;8.22;100.00;102358.16;5050402;28;20060;-74
2023/01/03 09:16:12;;;;;;;18.23;6.60;;;;;;;8.30;100.00;102360.00;5049042;28;20183;-73
2023/01/03 09:18:40;;;;;;;17.38;6.80;;;;;;;8.42;100.00;102356.47;5054813;28;20132;-75
2023/01/03 09:21:07;;;;;;;18.35;6.90;;;;;;;8.55;100.00;102358.91;5044996;28;20044;-74
2023/01/03 09:23:35;;;;;;;15.65;6.28;;;;;;;8.58;100.00;102363.72;5055574;28;20132;-75
2023/01/03 09:26:02;;;;;;;9.23;3.70;;;;;;;8.63;100.00;102362.66;5052762;28;20047;-75
2023/01/03 09:28:29;;;;;;;16.88;5.60;;;;;;;8.75;100.00;102344.19;5051153;28;20057;-76
2023/01/03 09:30:56;;;;;;;13.38;5.70;;;;;;;8.82;100.00;102351.88;5057013;28;20045;-72
2023/01/03 09:33:22;;;;;;;18.20;6.03;;;;;;;8.84;100.00;102352.34;5045350;28;20048;-75
2023/01/03 09:35:51;;;;;;;4.15;1.88;;;;;;;8.85;100.00;102352.00;5055018;28;20051;-73
2023/01/03 09:38:18;;;;;;;10.00;4.43;;;;;;;8.97;100.00;102362.19;5047219;28;20056;-74
2023/01/03 09:40:46;;;;;;;12.52;4.93;;;;;;;9.05;100.00;102355.75;5048663;28;20823;-74
2023/01/03 09:43:18;;;;;;;13.68;4.70;;;;;;;9.09;100.00;102356.66;5048745;28;20074;-73
2023/01/03 09:46:00;;;;;;;4.95;2.03;;;;;;;9.16;100.00;102365.16;5052714;28;20052;-75
2023/01/03 09:48:32;;;;;;;15.27;6.05;;;;;;;9.29;100.00;102364.81;5048489;28;20162;-73
2023/01/03 09:50:59;;;;;;;9.35;2.97;;;;;;;9.29;100.00;102367.56;5046639;28;20060;-72
2023/01/03 10:05:31;;;;;;;5.45;2.13;;;;;;;9.52;100.00;102378.91;5056502;28;20058;-73
2023/01/03 10:08:10;;;;;;;8.95;3.10;;;;;;;9.48;100.00;102386.25;5040530;28;20052;-74
2023/01/03 10:10:55;;;;;;;14.00;3.58;;;;;;;9.63;100.00;102371.72;5057043;28;20048;-74
2023/01/03 10:13:59;;;;;;;10.85;4.45;;;;;;;9.80;100.00;102385.25;5057332;28;20063;-75
2023/01/03 10:16:33;;;;;;;12.05;4.22;;;;;;;9.87;100.00;102369.66;5045747;28;20048;-74
2023/01/03 10:19:10;;;;;;;14.88;4.57;;;;;;;10.04;100.00;102374.06;5050951;28;20052;-73
2023/01/03 10:21:43;;;;;;;7.68;2.63;;;;;;;9.95;100.00;102374.22;5047741;28;20051;-75
2023/01/03 10:24:23;;;;;;;14.10;4.07;;;;;;;10.13;100.00;102372.78;5055400;28;20087;-73
2023/01/03 10:27:03;;;;;;;7.80;2.95;;;;;;;10.26;100.00;102371.53;5062026;28;20055;-75
2023/01/03 10:29:30;;;;;;;9.90;2.53;;;;;;;10.32;100.00;102374.84;5059005;28;20808;-75
2023/01/03 10:31:56;;;;;;;11.85;3.25;;;;;;;10.34;100.00;102376.13;5050727;28;20048;-74
2023/01/03 10:34:23;;;;;;;2.47;1.75;;;;;;;10.21;100.00;102365.47;5054572;28;20052;-76
2023/01/03 10:36:49;;;;;;;5.68;1.55;;;;;;;10.20;100.00;102370.19;5050376;28;20781;-75
2023/01/03 10:39:27;;;;;;;4.72;1.70;;;;;;;10.23;100.00;102363.94;5049711;28;20870;-74
2023/01/03 10:41:57;;;;;;;6.68;2.53;;;;;;;10.27;100.00;102361.28;5051882;28;20055;-75
2023/01/03 10:44:29;;;;;;;7.90;1.48;;;;;;;10.21;100.00;102354.41;5060197;28;20105;-75
2023/01/03 10:47:08;;;;;;;4.47;1.95;;;;;;;10.22;100.00;102359.59;5054672;28;20773;-76
2023/01/03 10:49:35;;;;;;;1.80;0.80;;;;;;;10.22;100.00;102353.25;5046882;28;20063;-74
2023/01/03 10:52:13;;;;;;;12.60;3.13;;;;;;;10.20;100.00;102364.66;5050923;28;20055;-74
2023/01/03 10:54:39;;;;;;;13.45;3.80;;;;;;;10.39;100.00;102341.81;5053154;28;20789;-74
2023/01/03 10:57:06;;;;;;;9.23;2.72;;;;;;;10.21;100.00;102340.56;5050279;28;20857;-75
2023/01/03 10:59:33;;;;;;;8.13;2.75;;;;;;;10.32;100.00;102334.16;5048530;28;20055;-75
2023/01/03 11:02:13;;;;;;;7.72;2.40;;;;;;;10.34;100.00;102344.88;5046270;28;20048;-74
2023/01/03 11:04:41;;;;;;;13.40;3.50;;;;;;;10.45;100.00;102337.63;5040972;28;20103;-75
2023/01/03 11:07:08;;;;;;;12.27;2.72;;;;;;;10.38;100.00;102331.94;5054733;28;20052;-75
2023/01/03 11:09:42;;;;;;;6.57;2.30;;;;;;;10.32;100.00;102342.47;5048749;28;20076;-75
2023/01/03 11:12:39;;;;;;;6.43;2.03;;;;;;;10.34;100.00;102347.63;5052324;28;20160;-75
2023/01/03 11:15:24;;;;;;;2.75;1.42;;;;;;;10.43;100.00;102335.22;5052708;28;20098;-74
2023/01/03 11:17:57;;;;;;;2.85;1.27;;;;;;;10.36;100.00;102342.53;5050440;28;20060;-73
2023/01/03 11:20:40;;;;;;;4.35;2.10;;;;;;;10.31;100.00;102343.63;5054652;28;20048;-73
2023/01/03 11:23:27;;;;;;;3.05;2.03;;;;;;;10.36;100.00;102339.75;5048113;28;20052;-73
2023/01/03 11:26:05;;;;;;;2.10;1.58;;;;;;;10.38;100.00;102340.22;5044978;28;20052;-73
2023/01/03 11:29:07;;;;;;;2.45;1.08;;;;;;;10.41;100.00;102334.78;5053023;28;20638;-74
2023/01/03 11:31:48;;;;;;;6.20;2.20;;;;;;;10.30;100.00;102350.31;5051132;28;21053;-74
2023/01/03 11:34:41;;;;;;;7.75;2.50;;;;;;;10.31;100.00;102340.88;5046858;28;20041;-75
2023/01/03 11:37:33;;;;;;;10.85;3.25;;;;;;;10.46;100.00;102330.94;5051076;28;20150;-75
2023/01/03 11:40:41;;;;;;;3.63;1.33;;;;;;;10.43;100.00;102332.47;5052684;28;20921;-74
2023/01/03 11:43:17;;;;;;;7.07;2.30;;;;;;;10.31;100.00;102329.78;5050618;28;20055;-75
2023/01/03 11:45:43;;;;;;;5.13;1.67;;;;;;;10.45;100.00;102338.44;5046734;28;20040;-75
2023/01/03 11:48:32;;;;;;;11.05;2.80;;;;;;;10.27;100.00;102325.31;5045249;28;20067;-73
2023/01/03 11:51:17;;;;;;;11.40;4.30;;;;;;;10.36;100.00;102326.75;5051804;28;20044;-73
2023/01/03 11:53:54;;;;;;;;;;;;;;;10.41;100.00;102328.44;5054216;28;20131;-74
2023/01/03 11:56:27;;;;;;;13.70;3.20;;;;;;;10.40;100.00;102324.88;5049567;28;20674;-74
2023/01/03 11:58:57;;;;;;;7.70;2.80;;;;;;;10.28;100.00;102319.44;5050772;28;20051;-75
2023/01/03 12:01:40;;;;;;;6.57;2.97;;;;;;;10.43;100.00;102315.84;5048932;28;20048;-76
2023/01/03 12:04:15;;;;;;;7.63;2.28;;;;;;;10.34;100.00;102311.66;5050182;28;20569;-74
2023/01/03 12:06:50;;;;;;;3.25;1.60;;;;;;;10.39;100.00;102312.19;5049431;28;20076;-74
2023/01/03 12:09:35;;;;;;;11.45;4.28;;;;;;;10.43;100.00;102306.75;5052702;28;20047;-77
2023/01/03 12:12:30;;;;;;;7.35;2.28;;;;;;;10.30;100.00;102317.09;5056172;28;20513;-77
2023/01/03 12:15:01;;;;;;;6.05;1.70;;;;;;;10.36;100.00;102310.16;5055235;28;20048;-75
2023/01/03 12:17:37;;;;;;;8.98;3.00;;;;;;;10.35;100.00;102313.28;5052917;28;20060;-74
2023/01/03 12:20:15;;;;;;;10.10;4.10;;;;;;;10.47;100.00;102310.41;5053338;28;20055;-76
2023/01/03 12:22:46;;;;;;;11.07;2.55;;;;;;;10.46;100.00;102304.06;5047926;28;20155;-77
2023/01/03 12:25:36;;;;;;;14.10;4.50;;;;;;;10.34;100.00;102304.19;5048436;28;20071;-77
2023/01/03 12:28:09;;;;;;;13.30;2.88;;;;;;;10.41;100.00;102312.66;5057190;28;20040;-76
2023/01/03 12:30:41;;;;;;;7.72;2.40;;;;;;;10.51;100.00;102314.06;5051793;28;20162;-74